sensor_id;sensor_type;location;lat;lon;timestamp;pressure;altitude;pressure_sealevel;temperature;humidity
57574;BME280;43409;48.858;21.906;2022-07-09T00:00:58;99092.28;;;24.86;41.92
57574;BME280;43409;48.858;21.906;2022-07-09T00:03:24;99084.75;;;24.82;41.97
57574;BME280;43409;48.858;21.906;2022-07-09T00:05:49;99080.97;;;24.83;42.00
57574;BME280;43409;48.858;21.906;2022-07-09T00:08:14;99095.50;;;24.88;41.75
57574;BME280;43409;48.858;21.906;2022-07-09T00:10:40;99089.56;;;24.80;42.03
57574;BME280;43409;48.858;21.906;2022-07-09T00:13:05;99097.06;;;24.83;41.90
57574;BME280;43409;48.858;21.906;2022-07-09T00:15:30;99094.38;;;24.78;42.09
57574;BME280;43409;48.858;21.906;2022-07-09T00:17:56;99091.16;;;24.76;42.01
57574;BME280;43409;48.858;21.906;2022-07-09T00:20:21;99091.97;;;24.77;41.97
57574;BME280;43409;48.858;21.906;2022-07-09T00:22:47;99089.03;;;24.83;41.69
57574;BME280;43409;48.858;21.906;2022-07-09T00:25:12;99093.06;;;24.86;41.67
57574;BME280;43409;48.858;21.906;2022-07-09T00:27:37;99087.44;;;24.88;41.66
57574;BME280;43409;48.858;21.906;2022-07-09T00:30:03;99086.91;;;24.91;41.71
57574;BME280;43409;48.858;21.906;2022-07-09T00:32:29;99083.97;;;24.92;41.54
57574;BME280;43409;48.858;21.906;2022-07-09T00:34:54;99094.66;;;24.82;41.82
57574;BME280;43409;48.858;21.906;2022-07-09T00:37:20;99086.59;;;24.82;41.70
57574;BME280;43409;48.858;21.906;2022-07-09T00:39:45;99088.50;;;24.87;41.44
57574;BME280;43409;48.858;21.906;2022-07-09T00:42:11;99079.94;;;24.90;41.60
57574;BME280;43409;48.858;21.906;2022-07-09T00:44:37;99082.63;;;24.90;41.69
57574;BME280;43409;48.858;21.906;2022-07-09T00:47:07;99084.22;;;24.86;41.55
57574;BME280;43409;48.858;21.906;2022-07-09T00:49:36;99078.34;;;24.89;41.80
57574;BME280;43409;48.858;21.906;2022-07-09T00:52:04;99082.34;;;24.91;41.46
57574;BME280;43409;48.858;21.906;2022-07-09T00:54:31;99082.06;;;24.88;41.66
57574;BME280;43409;48.858;21.906;2022-07-09T00:56:57;99086.91;;;24.91;41.49
57574;BME280;43409;48.858;21.906;2022-07-09T00:59:23;99084.25;;;24.91;41.41
57574;BME280;43409;48.858;21.906;2022-07-09T01:01:49;99079.66;;;24.86;41.48
57574;BME280;43409;48.858;21.906;2022-07-09T01:04:15;99076.72;;;24.82;41.60
57574;BME280;43409;48.858;21.906;2022-07-09T01:06:41;99070.25;;;24.83;41.54
57574;BME280;43409;48.858;21.906;2022-07-09T01:09:06;99080.47;;;24.87;41.59
57574;BME280;43409;48.858;21.906;2022-07-09T01:11:32;99076.72;;;24.88;41.53
57574;BME280;43409;48.858;21.906;2022-07-09T01:13:58;99076.19;;;24.86;41.50
57574;BME280;43409;48.858;21.906;2022-07-09T01:16:33;99076.97;;;24.81;41.53
57574;BME280;43409;48.858;21.906;2022-07-09T01:18:59;99064.09;;;24.83;41.57
57574;BME280;43409;48.858;21.906;2022-07-09T01:21:24;99068.66;;;24.82;41.60
57574;BME280;43409;48.858;21.906;2022-07-09T01:23:50;99063.03;;;24.84;41.71
57574;BME280;43409;48.858;21.906;2022-07-09T01:26:15;99064.34;;;24.81;41.60
57574;BME280;43409;48.858;21.906;2022-07-09T01:28:41;99068.66;;;24.82;41.57
57574;BME280;43409;48.858;21.906;2022-07-09T01:31:07;99059.25;;;24.80;41.74
57574;BME280;43409;48.858;21.906;2022-07-09T01:33:32;99062.19;;;24.78;41.71
57574;BME280;43409;48.858;21.906;2022-07-09T01:35:58;99065.72;;;24.84;41.72
57574;BME280;43409;48.858;21.906;2022-07-09T01:38:24;99057.94;;;24.82;41.69
57574;BME280;43409;48.858;21.906;2022-07-09T01:40:49;99053.88;;;24.80;41.82
57574;BME280;43409;48.858;21.906;2022-07-09T01:43:15;99052.56;;;24.82;41.58
57574;BME280;43409;48.858;21.906;2022-07-09T01:45:40;99051.78;;;24.87;41.54
57574;BME280;43409;48.858;21.906;2022-07-09T01:48:06;99045.56;;;24.81;41.79
57574;BME280;43409;48.858;21.906;2022-07-09T01:50:31;99052.03;;;24.86;41.78
57574;BME280;43409;48.858;21.906;2022-07-09T01:52:57;99037.53;;;24.87;41.57
57574;BME280;43409;48.858;21.906;2022-07-09T01:55:22;99046.69;;;24.86;41.70
57574;BME280;43409;48.858;21.906;2022-07-09T01:57:47;99039.16;;;24.88;41.63
57574;BME280;43409;48.858;21.906;2022-07-09T02:00:13;99044.53;;;24.88;41.66
57574;BME280;43409;48.858;21.906;2022-07-09T02:02:39;99036.47;;;24.82;41.78
57574;BME280;43409;48.858;21.906;2022-07-09T02:05:05;99038.06;;;24.78;42.01
57574;BME280;43409;48.858;21.906;2022-07-09T02:07:30;99040.75;;;24.78;41.84
57574;BME280;43409;48.858;21.906;2022-07-09T02:09:55;99046.38;;;24.82;41.83
57574;BME280;43409;48.858;21.906;2022-07-09T02:12:21;99046.63;;;24.75;42.09
57574;BME280;43409;48.858;21.906;2022-07-09T02:14:46;99041.25;;;24.75;42.02
57574;BME280;43409;48.858;21.906;2022-07-09T02:17:13;99051.47;;;24.78;41.91
57574;BME280;43409;48.858;21.906;2022-07-09T02:19:38;99047.16;;;24.77;42.12
57574;BME280;43409;48.858;21.906;2022-07-09T02:22:04;99055.22;;;24.77;41.93
57574;BME280;43409;48.858;21.906;2022-07-09T02:24:29;99050.94;;;24.76;41.97
57574;BME280;43409;48.858;21.906;2022-07-09T02:26:55;99051.47;;;24.73;42.06
57574;BME280;43409;48.858;21.906;2022-07-09T02:29:20;99045.84;;;24.75;42.05
57574;BME280;43409;48.858;21.906;2022-07-09T02:31:46;99053.34;;;24.78;41.97
57574;BME280;43409;48.858;21.906;2022-07-09T02:34:11;99043.41;;;24.73;42.07
57574;BME280;43409;48.858;21.906;2022-07-09T02:36:37;99048.78;;;24.73;41.94
57574;BME280;43409;48.858;21.906;2022-07-09T02:39:02;99057.34;;;24.70;41.96
57574;BME280;43409;48.858;21.906;2022-07-09T02:41:27;99053.03;;;24.69;41.83
57574;BME280;43409;48.858;21.906;2022-07-09T02:43:53;99064.56;;;24.70;41.94
57574;BME280;43409;48.858;21.906;2022-07-09T02:46:18;99053.03;;;24.69;41.97
57574;BME280;43409;48.858;21.906;2022-07-09T02:48:44;99053.34;;;24.78;41.69
57574;BME280;43409;48.858;21.906;2022-07-09T02:51:09;99061.91;;;24.75;41.95
57574;BME280;43409;48.858;21.906;2022-07-09T02:53:35;99058.16;;;24.76;41.82
57574;BME280;43409;48.858;21.906;2022-07-09T02:56:00;99057.88;;;24.72;41.69
57574;BME280;43409;48.858;21.906;2022-07-09T02:58:26;99062.97;;;24.69;41.86
57574;BME280;43409;48.858;21.906;2022-07-09T03:00:51;99054.94;;;24.74;41.81
57574;BME280;43409;48.858;21.906;2022-07-09T03:03:16;99055.72;;;24.69;41.72
57574;BME280;43409;48.858;21.906;2022-07-09T03:05:42;99051.41;;;24.68;41.73
57574;BME280;43409;48.858;21.906;2022-07-09T03:08:07;99054.94;;;24.74;41.74
57574;BME280;43409;48.858;21.906;2022-07-09T03:10:34;99053.63;;;24.76;41.53
57574;BME280;43409;48.858;21.906;2022-07-09T03:13:00;99053.63;;;24.76;41.62
57574;BME280;43409;48.858;21.906;2022-07-09T03:15:25;99056.03;;;24.78;41.41
57574;BME280;43409;48.858;21.906;2022-07-09T03:17:51;99065.41;;;24.80;41.47
57574;BME280;43409;48.858;21.906;2022-07-09T03:20:16;99056.03;;;24.83;41.35
57574;BME280;43409;48.858;21.906;2022-07-09T03:22:41;99057.94;;;24.82;41.37
57574;BME280;43409;48.858;21.906;2022-07-09T03:25:08;99056.88;;;24.94;41.22
57574;BME280;43409;48.858;21.906;2022-07-09T03:27:34;99055.56;;;25.01;41.02
57574;BME280;43409;48.858;21.906;2022-07-09T03:30:00;99039.84;;;25.46;40.11
57574;BME280;43409;48.858;21.906;2022-07-09T03:32:26;99046.28;;;25.45;40.27
57574;BME280;43409;48.858;21.906;2022-07-09T03:34:51;99044.34;;;25.20;40.68
57574;BME280;43409;48.858;21.906;2022-07-09T03:37:18;99044.34;;;25.25;40.50
57574;BME280;43409;48.858;21.906;2022-07-09T03:39:44;99044.59;;;25.24;40.50
57574;BME280;43409;48.858;21.906;2022-07-09T03:42:13;99039.31;;;25.54;40.45
57574;BME280;43409;48.858;21.906;2022-07-09T03:44:38;99040.38;;;25.89;39.25
57574;BME280;43409;48.858;21.906;2022-07-09T03:47:05;99040.94;;;25.50;40.10
57574;BME280;43409;48.858;21.906;2022-07-09T03:49:30;99045.22;;;25.41;40.45
57574;BME280;43409;48.858;21.906;2022-07-09T03:51:55;99043.06;;;25.48;40.17
57574;BME280;43409;48.858;21.906;2022-07-09T03:54:21;99044.16;;;25.47;40.31
57574;BME280;43409;48.858;21.906;2022-07-09T03:56:46;99051.09;;;25.95;39.22
57574;BME280;43409;48.858;21.906;2022-07-09T03:59:12;99037.16;;;25.82;39.38
57574;BME280;43409;48.858;21.906;2022-07-09T04:01:37;99044.69;;;25.70;39.80
57574;BME280;43409;48.858;21.906;2022-07-09T04:04:03;99050.06;;;25.70;39.75
57574;BME280;43409;48.858;21.906;2022-07-09T04:06:29;99053.81;;;25.69;39.73
57574;BME280;43409;48.858;21.906;2022-07-09T04:08:54;99048.97;;;25.76;39.49
57574;BME280;43409;48.858;21.906;2022-07-09T04:11:20;99049.53;;;25.94;39.09
57574;BME280;43409;48.858;21.906;2022-07-09T04:13:46;99050.03;;;25.85;39.56
57574;BME280;43409;48.858;21.906;2022-07-09T04:16:11;99044.66;;;25.85;39.37
57574;BME280;43409;48.858;21.906;2022-07-09T04:18:36;99042.81;;;25.86;39.28
57574;BME280;43409;48.858;21.906;2022-07-09T04:21:02;99042.28;;;25.89;39.36
57574;BME280;43409;48.858;21.906;2022-07-09T04:23:28;99042.53;;;25.92;39.09
57574;BME280;43409;48.858;21.906;2022-07-09T04:25:53;99054.59;;;25.90;39.31
57574;BME280;43409;48.858;21.906;2022-07-09T04:28:19;99051.38;;;25.93;39.16
57574;BME280;43409;48.858;21.906;2022-07-09T04:30:45;99050.31;;;25.79;39.35
57574;BME280;43409;48.858;21.906;2022-07-09T04:33:11;99048.97;;;25.91;39.49
57574;BME280;43409;48.858;21.906;2022-07-09T04:35:36;99042.81;;;26.01;39.27
57574;BME280;43409;48.858;21.906;2022-07-09T04:38:02;99039.59;;;26.04;39.36
57574;BME280;43409;48.858;21.906;2022-07-09T04:40:28;99044.69;;;26.06;39.19
57574;BME280;43409;48.858;21.906;2022-07-09T04:42:54;99048.97;;;25.91;39.07
57574;BME280;43409;48.858;21.906;2022-07-09T04:45:19;99050.03;;;25.96;38.96
57574;BME280;43409;48.858;21.906;2022-07-09T04:47:44;99057.84;;;26.02;39.17
57574;BME280;43409;48.858;21.906;2022-07-09T04:50:26;99042.00;;;26.01;39.12
57574;BME280;43409;48.858;21.906;2022-07-09T04:52:52;99054.34;;;25.97;39.30
57574;BME280;43409;48.858;21.906;2022-07-09T04:55:18;99057.56;;;25.83;39.32
57574;BME280;43409;48.858;21.906;2022-07-09T04:57:51;99043.09;;;26.00;39.15
57574;BME280;43409;48.858;21.906;2022-07-09T05:03:34;99055.97;;;26.18;38.79
57574;BME280;43409;48.858;21.906;2022-07-09T05:05:59;99055.41;;;26.21;38.85
57574;BME280;43409;48.858;21.906;2022-07-09T05:08:25;99057.28;;;26.26;38.72
57574;BME280;43409;48.858;21.906;2022-07-09T05:10:50;99060.50;;;26.28;38.25
57574;BME280;43409;48.858;21.906;2022-07-09T05:13:16;99044.13;;;26.24;38.13
57574;BME280;43409;48.858;21.906;2022-07-09T05:15:41;99048.13;;;26.32;38.07
57574;BME280;43409;48.858;21.906;2022-07-09T05:18:06;99052.66;;;26.37;37.85
57574;BME280;43409;48.858;21.906;2022-07-09T05:20:32;99063.94;;;26.44;37.56
57574;BME280;43409;48.858;21.906;2022-07-09T05:22:57;99053.19;;;26.44;38.01
57574;BME280;43409;48.858;21.906;2022-07-09T05:25:24;99067.16;;;26.51;37.78
57574;BME280;43409;48.858;21.906;2022-07-09T05:27:49;99069.84;;;26.51;37.67
57574;BME280;43409;48.858;21.906;2022-07-09T05:30:15;99062.31;;;26.53;37.91
57574;BME280;43409;48.858;21.906;2022-07-09T05:32:41;99065.50;;;26.55;37.79
57574;BME280;43409;48.858;21.906;2022-07-09T05:35:07;99057.47;;;26.50;37.86
57574;BME280;43409;48.858;21.906;2022-07-09T05:37:33;99057.44;;;26.60;37.44
57574;BME280;43409;48.858;21.906;2022-07-09T05:39:59;99058.00;;;26.57;37.68
57574;BME280;43409;48.858;21.906;2022-07-09T05:42:31;99057.47;;;26.50;37.30
57574;BME280;43409;48.858;21.906;2022-07-09T05:44:56;99057.47;;;26.50;37.53
57574;BME280;43409;48.858;21.906;2022-07-09T05:47:21;99057.72;;;26.54;37.71
57574;BME280;43409;48.858;21.906;2022-07-09T05:49:47;99051.56;;;26.53;37.64
57574;BME280;43409;48.858;21.906;2022-07-09T05:52:12;99054.25;;;26.43;37.64
57574;BME280;43409;48.858;21.906;2022-07-09T05:54:37;99052.94;;;26.35;37.48
57574;BME280;43409;48.858;21.906;2022-07-09T05:57:03;99059.72;;;26.27;37.63
57574;BME280;43409;48.858;21.906;2022-07-09T05:59:29;99052.72;;;26.16;37.89
57574;BME280;43409;48.858;21.906;2022-07-09T06:01:54;99054.63;;;26.05;38.11
57574;BME280;43409;48.858;21.906;2022-07-09T06:04:19;99055.19;;;26.07;37.78
57574;BME280;43409;48.858;21.906;2022-07-09T06:06:45;99043.88;;;26.00;37.96
57574;BME280;43409;48.858;21.906;2022-07-09T06:09:10;99057.03;;;25.97;37.78
57574;BME280;43409;48.858;21.906;2022-07-09T06:11:35;99055.97;;;25.87;38.00
57574;BME280;43409;48.858;21.906;2022-07-09T06:14:01;99057.56;;;25.88;37.77
57574;BME280;43409;48.858;21.906;2022-07-09T06:16:26;99057.31;;;25.85;37.77
57574;BME280;43409;48.858;21.906;2022-07-09T06:18:52;99057.31;;;25.85;37.89
57574;BME280;43409;48.858;21.906;2022-07-09T06:21:17;99059.19;;;25.79;37.83
57574;BME280;43409;48.858;21.906;2022-07-09T06:23:42;99063.22;;;25.77;37.70
57574;BME280;43409;48.858;21.906;2022-07-09T06:26:08;99052.22;;;25.78;37.75
57574;BME280;43409;48.858;21.906;2022-07-09T06:28:36;99058.38;;;25.79;37.78
57574;BME280;43409;48.858;21.906;2022-07-09T06:31:02;99058.66;;;25.77;37.41
57574;BME280;43409;48.858;21.906;2022-07-09T06:33:27;99063.22;;;25.77;37.54
57574;BME280;43409;48.858;21.906;2022-07-09T06:35:52;99050.59;;;25.77;37.55
57574;BME280;43409;48.858;21.906;2022-07-09T06:38:18;99053.28;;;25.77;37.62
57574;BME280;43409;48.858;21.906;2022-07-09T06:40:43;99048.44;;;25.79;37.54
57574;BME280;43409;48.858;21.906;2022-07-09T06:43:09;99047.63;;;25.89;37.51
57574;BME280;43409;48.858;21.906;2022-07-09T06:45:35;99047.38;;;26.06;36.86
57574;BME280;43409;48.858;21.906;2022-07-09T06:48:01;99040.63;;;26.08;36.73
57574;BME280;43409;48.858;21.906;2022-07-09T06:50:26;99038.22;;;26.17;36.77
57574;BME280;43409;48.858;21.906;2022-07-09T06:52:51;99040.34;;;26.25;36.48
57574;BME280;43409;48.858;21.906;2022-07-09T06:55:17;99040.88;;;26.33;36.68
57574;BME280;43409;48.858;21.906;2022-07-09T06:57:42;99035.75;;;26.36;36.39
57574;BME280;43409;48.858;21.906;2022-07-09T07:00:08;99035.25;;;26.29;36.73
57574;BME280;43409;48.858;21.906;2022-07-09T07:02:34;99032.28;;;26.20;37.16
57574;BME280;43409;48.858;21.906;2022-07-09T07:04:59;99029.84;;;26.34;36.79
57574;BME280;43409;48.858;21.906;2022-07-09T07:07:25;99026.88;;;26.36;36.63
57574;BME280;43409;48.858;21.906;2022-07-09T07:09:50;99029.09;;;26.18;36.71
57574;BME280;43409;48.858;21.906;2022-07-09T07:12:16;99030.97;;;26.13;36.67
57574;BME280;43409;48.858;21.906;2022-07-09T07:14:41;99032.31;;;26.05;36.80
57574;BME280;43409;48.858;21.906;2022-07-09T07:17:08;99024.78;;;26.07;36.50
57574;BME280;43409;48.858;21.906;2022-07-09T07:19:33;99030.72;;;25.99;36.69
57574;BME280;43409;48.858;21.906;2022-07-09T07:21:59;99034.47;;;25.98;36.47
57574;BME280;43409;48.858;21.906;2022-07-09T07:24:24;99025.34;;;25.94;36.61
57574;BME280;43409;48.858;21.906;2022-07-09T07:26:50;99044.97;;;25.89;36.61
57574;BME280;43409;48.858;21.906;2022-07-09T07:29:15;99037.44;;;25.86;36.57
57574;BME280;43409;48.858;21.906;2022-07-09T07:31:41;99039.31;;;25.90;36.44
57574;BME280;43409;48.858;21.906;2022-07-09T07:34:06;99028.53;;;25.96;36.28
57574;BME280;43409;48.858;21.906;2022-07-09T07:36:32;99021.81;;;25.93;36.29
57574;BME280;43409;48.858;21.906;2022-07-09T07:38:57;99024.78;;;25.91;36.62
57574;BME280;43409;48.858;21.906;2022-07-09T07:41:22;99023.19;;;25.90;36.46
57574;BME280;43409;48.858;21.906;2022-07-09T07:43:48;99025.88;;;25.96;36.27
57574;BME280;43409;48.858;21.906;2022-07-09T07:46:14;99022.09;;;25.91;36.18
57574;BME280;43409;48.858;21.906;2022-07-09T07:48:39;99024.00;;;25.91;36.24
57574;BME280;43409;48.858;21.906;2022-07-09T07:51:08;99025.88;;;25.90;36.27
57574;BME280;43409;48.858;21.906;2022-07-09T07:53:34;99030.16;;;25.97;36.11
57574;BME280;43409;48.858;21.906;2022-07-09T07:56:01;99021.31;;;26.01;36.09
57574;BME280;43409;48.858;21.906;2022-07-09T07:58:27;99020.50;;;26.01;36.00
57574;BME280;43409;48.858;21.906;2022-07-09T08:00:52;99016.72;;;26.12;36.00
57574;BME280;43409;48.858;21.906;2022-07-09T08:03:18;99013.50;;;26.15;35.94
57574;BME280;43409;48.858;21.906;2022-07-09T08:05:43;99011.34;;;26.17;35.96
57574;BME280;43409;48.858;21.906;2022-07-09T08:08:09;99005.16;;;26.17;36.09
57574;BME280;43409;48.858;21.906;2022-07-09T08:10:34;99011.09;;;26.03;35.71
57574;BME280;43409;48.858;21.906;2022-07-09T08:13:00;99004.38;;;26.06;36.07
57574;BME280;43409;48.858;21.906;2022-07-09T08:15:25;99004.94;;;26.03;36.26
57574;BME280;43409;48.858;21.906;2022-07-09T08:17:51;99006.00;;;25.86;36.22
57574;BME280;43409;48.858;21.906;2022-07-09T08:20:16;99001.69;;;25.90;36.25
57574;BME280;43409;48.858;21.906;2022-07-09T08:22:41;99000.88;;;25.90;36.20
57574;BME280;43409;48.858;21.906;2022-07-09T08:25:07;99013.50;;;25.79;36.28
57574;BME280;43409;48.858;21.906;2022-07-09T08:27:32;99002.25;;;25.77;36.50
57574;BME280;43409;48.858;21.906;2022-07-09T08:29:58;99007.06;;;25.80;36.23
57574;BME280;43409;48.858;21.906;2022-07-09T08:32:23;99008.69;;;25.76;36.52
57574;BME280;43409;48.858;21.906;2022-07-09T08:34:49;99010.81;;;25.79;36.30
57574;BME280;43409;48.858;21.906;2022-07-09T08:37:14;99014.59;;;25.78;36.19
57574;BME280;43409;48.858;21.906;2022-07-09T08:39:40;99003.31;;;25.81;36.50
57574;BME280;43409;48.858;21.906;2022-07-09T08:42:09;99005.47;;;25.84;36.22
57574;BME280;43409;48.858;21.906;2022-07-09T08:44:40;99003.31;;;25.86;35.97
57574;BME280;43409;48.858;21.906;2022-07-09T08:47:10;98995.78;;;25.99;35.89
57574;BME280;43409;48.858;21.906;2022-07-09T08:49:37;99001.69;;;25.90;36.20
57574;BME280;43409;48.858;21.906;2022-07-09T08:52:02;99004.91;;;25.92;35.99
57574;BME280;43409;48.858;21.906;2022-07-09T08:54:30;98987.72;;;25.94;35.85
57574;BME280;43409;48.858;21.906;2022-07-09T08:56:56;98999.81;;;26.01;35.66
57574;BME280;43409;48.858;21.906;2022-07-09T08:59:21;98986.94;;;25.98;35.85
57574;BME280;43409;48.858;21.906;2022-07-09T09:01:47;98990.41;;;25.94;35.98
57574;BME280;43409;48.858;21.906;2022-07-09T09:04:12;98997.41;;;26.00;35.88
57574;BME280;43409;48.858;21.906;2022-07-09T09:06:38;98994.44;;;26.01;35.72
57574;BME280;43409;48.858;21.906;2022-07-09T09:09:07;98992.56;;;25.97;35.92
57574;BME280;43409;48.858;21.906;2022-07-09T09:11:34;98987.44;;;25.95;35.80
57574;BME280;43409;48.858;21.906;2022-07-09T09:14:01;98989.59;;;25.88;36.24
57574;BME280;43409;48.858;21.906;2022-07-09T09:16:27;98981.28;;;25.89;36.09
57574;BME280;43409;48.858;21.906;2022-07-09T09:18:53;98992.53;;;25.91;36.33
57574;BME280;43409;48.858;21.906;2022-07-09T09:21:20;98986.63;;;25.95;36.25
57574;BME280;43409;48.858;21.906;2022-07-09T09:23:51;98990.41;;;25.94;36.29
57574;BME280;43409;48.858;21.906;2022-07-09T09:26:19;98988.00;;;25.82;36.05
57574;BME280;43409;48.858;21.906;2022-07-09T09:28:49;98985.03;;;25.83;36.10
57574;BME280;43409;48.858;21.906;2022-07-09T09:31:19;98986.41;;;25.86;35.82
57574;BME280;43409;48.858;21.906;2022-07-09T09:33:45;98979.13;;;25.86;35.76
57574;BME280;43409;48.858;21.906;2022-07-09T09:36:10;98975.09;;;25.89;35.94
57574;BME280;43409;48.858;21.906;2022-07-09T09:38:35;98980.47;;;25.94;35.75
57574;BME280;43409;48.858;21.906;2022-07-09T09:41:01;98977.25;;;25.92;35.75
57574;BME280;43409;48.858;21.906;2022-07-09T09:43:27;98966.22;;;25.88;35.77
57574;BME280;43409;48.858;21.906;2022-07-09T09:45:58;98963.00;;;25.91;36.00
57574;BME280;43409;48.858;21.906;2022-07-09T09:48:28;98970.50;;;25.95;35.88
57574;BME280;43409;48.858;21.906;2022-07-09T09:50:55;98965.44;;;25.98;35.86
57574;BME280;43409;48.858;21.906;2022-07-09T09:53:40;98955.22;;;26.00;35.67
57574;BME280;43409;48.858;21.906;2022-07-09T09:56:07;98957.34;;;26.03;35.75
57574;BME280;43409;48.858;21.906;2022-07-09T09:58:34;98940.97;;;26.00;35.78
57574;BME280;43409;48.858;21.906;2022-07-09T10:00:59;98943.91;;;26.03;35.74
57574;BME280;43409;48.858;21.906;2022-07-09T10:03:25;98939.09;;;26.00;35.64
57574;BME280;43409;48.858;21.906;2022-07-09T10:05:51;98941.78;;;26.00;35.47
57574;BME280;43409;48.858;21.906;2022-07-09T10:08:17;98931.28;;;26.04;35.97
57574;BME280;43409;48.858;21.906;2022-07-09T10:10:51;98933.44;;;26.02;35.65
57574;BME280;43409;48.858;21.906;2022-07-09T10:13:23;98925.91;;;26.04;35.76
57574;BME280;43409;48.858;21.906;2022-07-09T10:15:49;98927.78;;;26.03;35.57
57574;BME280;43409;48.858;21.906;2022-07-09T10:18:17;98921.88;;;26.06;35.58
57574;BME280;43409;48.858;21.906;2022-07-09T10:20:43;98926.97;;;26.08;35.61
57574;BME280;43409;48.858;21.906;2022-07-09T10:23:20;98927.50;;;26.10;35.29
57574;BME280;43409;48.858;21.906;2022-07-09T10:25:47;98914.09;;;26.05;35.52
57574;BME280;43409;48.858;21.906;2022-07-09T10:28:19;98924.25;;;26.13;35.24
57574;BME280;43409;48.858;21.906;2022-07-09T10:30:46;98906.28;;;26.08;35.16
57574;BME280;43409;48.858;21.906;2022-07-09T10:33:13;98911.94;;;26.02;35.50
57574;BME280;43409;48.858;21.906;2022-07-09T10:35:52;98914.91;;;26.00;35.39
57574;BME280;43409;48.858;21.906;2022-07-09T10:38:19;98915.16;;;26.04;35.31
57574;BME280;43409;48.858;21.906;2022-07-09T10:40:55;98902.00;;;26.02;35.02
57574;BME280;43409;48.858;21.906;2022-07-09T10:43:37;98915.69;;;26.06;35.11
57574;BME280;43409;48.858;21.906;2022-07-09T10:46:12;98902.78;;;26.08;34.84
57574;BME280;43409;48.858;21.906;2022-07-09T10:48:37;98892.84;;;26.08;34.82
57574;BME280;43409;48.858;21.906;2022-07-09T10:51:03;98901.16;;;26.12;34.85
57574;BME280;43409;48.858;21.906;2022-07-09T10:53:29;98901.16;;;26.12;34.56
57574;BME280;43409;48.858;21.906;2022-07-09T10:55:55;98886.38;;;26.09;34.74
57574;BME280;43409;48.858;21.906;2022-07-09T10:58:22;98884.53;;;26.05;34.68
57574;BME280;43409;48.858;21.906;2022-07-09T11:01:00;98886.38;;;26.09;34.51
57574;BME280;43409;48.858;21.906;2022-07-09T11:03:27;98881.53;;;26.12;34.31
57574;BME280;43409;48.858;21.906;2022-07-09T11:05:53;98878.56;;;26.13;34.21
57574;BME280;43409;48.858;21.906;2022-07-09T11:08:18;98886.09;;;26.16;34.06
57574;BME280;43409;48.858;21.906;2022-07-09T11:10:44;98875.31;;;26.16;34.23
57574;BME280;43409;48.858;21.906;2022-07-09T11:13:09;98885.03;;;26.07;34.49
57574;BME280;43409;48.858;21.906;2022-07-09T11:15:36;98878.34;;;26.04;35.03
57574;BME280;43409;48.858;21.906;2022-07-09T11:18:06;98884.28;;;26.01;35.11
57574;BME280;43409;48.858;21.906;2022-07-09T11:20:36;98873.78;;;26.05;34.87
57574;BME280;43409;48.858;21.906;2022-07-09T11:23:02;98878.09;;;26.06;35.12
57574;BME280;43409;48.858;21.906;2022-07-09T11:25:28;98872.69;;;26.11;34.90
57574;BME280;43409;48.858;21.906;2022-07-09T11:27:57;98875.91;;;26.08;34.48
57574;BME280;43409;48.858;21.906;2022-07-09T11:30:23;98872.19;;;25.99;34.67
57574;BME280;43409;48.858;21.906;2022-07-09T11:32:49;98864.66;;;26.01;34.73
57574;BME280;43409;48.858;21.906;2022-07-09T11:35:32;98855.75;;;26.05;34.53
57574;BME280;43409;48.858;21.906;2022-07-09T11:41:20;98842.09;;;26.02;34.35
57574;BME280;43409;48.858;21.906;2022-07-09T11:43:49;98848.25;;;26.02;34.26
57574;BME280;43409;48.858;21.906;2022-07-09T11:46:16;98845.03;;;26.00;34.20
57574;BME280;43409;48.858;21.906;2022-07-09T11:48:52;98837.25;;;25.99;34.23
57574;BME280;43409;48.858;21.906;2022-07-09T11:51:36;98845.84;;;25.96;34.29
57574;BME280;43409;48.858;21.906;2022-07-09T11:54:02;98843.16;;;25.96;34.27
57574;BME280;43409;48.858;21.906;2022-07-09T11:56:39;98836.97;;;26.00;34.12
57574;BME280;43409;48.858;21.906;2022-07-09T11:59:05;98837.25;;;25.99;33.88
57574;BME280;43409;48.858;21.906;2022-07-09T12:01:30;98844.78;;;26.02;33.79
57574;BME280;43409;48.858;21.906;2022-07-09T12:03:55;98834.56;;;25.99;33.86
57574;BME280;43409;48.858;21.906;2022-07-09T12:06:21;98827.81;;;26.06;33.95
57574;BME280;43409;48.858;21.906;2022-07-09T12:09:07;98829.44;;;26.07;34.05
57574;BME280;43409;48.858;21.906;2022-07-09T12:11:32;98827.31;;;26.04;33.83
57574;BME280;43409;48.858;21.906;2022-07-09T12:13:58;98831.56;;;26.05;34.20
57574;BME280;43409;48.858;21.906;2022-07-09T12:16:23;98825.69;;;26.03;34.19
57574;BME280;43409;48.858;21.906;2022-07-09T12:18:49;98822.16;;;26.08;33.78
57574;BME280;43409;48.858;21.906;2022-07-09T12:21:15;98821.09;;;26.09;33.72
57574;BME280;43409;48.858;21.906;2022-07-09T12:23:40;98811.97;;;26.05;33.71
57574;BME280;43409;48.858;21.906;2022-07-09T12:26:05;98814.13;;;26.03;33.58
57574;BME280;43409;48.858;21.906;2022-07-09T12:28:31;98811.47;;;26.03;33.74
57574;BME280;43409;48.858;21.906;2022-07-09T12:30:56;98808.44;;;26.09;33.50
57574;BME280;43409;48.858;21.906;2022-07-09T12:33:22;98790.44;;;26.10;33.64
57574;BME280;43409;48.858;21.906;2022-07-09T12:35:47;98786.16;;;26.09;33.41
57574;BME280;43409;48.858;21.906;2022-07-09T12:38:13;98786.41;;;26.13;33.54
57574;BME280;43409;48.858;21.906;2022-07-09T12:40:38;98782.38;;;26.10;33.55
57574;BME280;43409;48.858;21.906;2022-07-09T12:43:04;98785.31;;;26.14;33.54
57574;BME280;43409;48.858;21.906;2022-07-09T12:45:29;98769.47;;;26.12;33.57
57574;BME280;43409;48.858;21.906;2022-07-09T12:47:54;98767.31;;;26.14;33.76
57574;BME280;43409;48.858;21.906;2022-07-09T12:50:20;98773.19;;;26.16;33.46
57574;BME280;43409;48.858;21.906;2022-07-09T12:52:45;98772.97;;;26.13;33.29